sensor_id;sensor_type;location;lat;lon;timestamp;P1;durP1;ratioP1;P2;durP2;ratioP2
67162;SDS011;54092;53.088;8.850;2023-07-29T00:00:46;26.48;;;13.88;;
67162;SDS011;54092;53.088;8.850;2023-07-29T00:03:12;30.50;;;16.35;;
67162;SDS011;54092;53.088;8.850;2023-07-29T00:05:37;30.23;;;14.40;;
67162;SDS011;54092;53.088;8.850;2023-07-29T00:08:03;28.38;;;14.90;;
67162;SDS011;54092;53.088;8.850;2023-07-29T00:10:31;28.63;;;15.48;;
67162;SDS011;54092;53.088;8.850;2023-07-29T00:12:57;31.30;;;14.23;;
67162;SDS011;54092;53.088;8.850;2023-07-29T00:15:23;28.08;;;14.75;;
67162;SDS011;54092;53.088;8.850;2023-07-29T00:17:49;26.63;;;14.77;;
67162;SDS011;54092;53.088;8.850;2023-07-29T00:20:14;28.38;;;14.20;;
67162;SDS011;54092;53.088;8.850;2023-07-29T00:22:40;30.67;;;14.80;;
67162;SDS011;54092;53.088;8.850;2023-07-29T00:25:06;28.00;;;14.20;;
67162;SDS011;54092;53.088;8.850;2023-07-29T00:27:32;25.60;;;14.05;;
67162;SDS011;54092;53.088;8.850;2023-07-29T00:29:57;28.67;;;14.02;;
67162;SDS011;54092;53.088;8.850;2023-07-29T00:32:23;26.27;;;13.25;;
67162;SDS011;54092;53.088;8.850;2023-07-29T00:34:48;28.92;;;13.98;;
67162;SDS011;54092;53.088;8.850;2023-07-29T00:37:14;24.85;;;14.43;;
67162;SDS011;54092;53.088;8.850;2023-07-29T00:39:39;26.65;;;14.70;;
67162;SDS011;54092;53.088;8.850;2023-07-29T00:42:05;28.67;;;14.20;;
67162;SDS011;54092;53.088;8.850;2023-07-29T00:44:31;28.70;;;14.75;;
67162;SDS011;54092;53.088;8.850;2023-07-29T00:46:57;27.88;;;14.15;;
67162;SDS011;54092;53.088;8.850;2023-07-29T00:49:23;30.08;;;15.75;;
67162;SDS011;54092;53.088;8.850;2023-07-29T00:51:49;32.55;;;15.15;;
67162;SDS011;54092;53.088;8.850;2023-07-29T00:54:15;28.38;;;14.38;;
67162;SDS011;54092;53.088;8.850;2023-07-29T00:56:41;33.83;;;15.65;;
67162;SDS011;54092;53.088;8.850;2023-07-29T00:59:07;35.15;;;15.43;;
67162;SDS011;54092;53.088;8.850;2023-07-29T01:01:32;31.60;;;15.23;;
67162;SDS011;54092;53.088;8.850;2023-07-29T01:03:58;31.98;;;15.68;;
67162;SDS011;54092;53.088;8.850;2023-07-29T01:09:14;32.10;;;14.18;;
67162;SDS011;54092;53.088;8.850;2023-07-29T01:11:56;33.08;;;15.00;;
67162;SDS011;54092;53.088;8.850;2023-07-29T01:14:33;30.75;;;14.90;;
67162;SDS011;54092;53.088;8.850;2023-07-29T01:17:23;29.70;;;15.15;;
67162;SDS011;54092;53.088;8.850;2023-07-29T01:20:02;33.05;;;15.00;;
67162;SDS011;54092;53.088;8.850;2023-07-29T01:22:33;33.35;;;15.73;;
67162;SDS011;54092;53.088;8.850;2023-07-29T01:25:00;34.25;;;16.38;;
67162;SDS011;54092;53.088;8.850;2023-07-29T01:27:25;32.78;;;15.68;;
67162;SDS011;54092;53.088;8.850;2023-07-29T01:29:52;32.45;;;14.73;;
67162;SDS011;54092;53.088;8.850;2023-07-29T01:32:22;34.63;;;15.30;;
67162;SDS011;54092;53.088;8.850;2023-07-29T01:35:03;38.80;;;16.15;;
67162;SDS011;54092;53.088;8.850;2023-07-29T01:37:35;37.22;;;16.58;;
67162;SDS011;54092;53.088;8.850;2023-07-29T01:40:03;33.67;;;16.67;;
67162;SDS011;54092;53.088;8.850;2023-07-29T01:42:31;36.65;;;15.35;;
67162;SDS011;54092;53.088;8.850;2023-07-29T01:44:57;33.90;;;15.80;;
67162;SDS011;54092;53.088;8.850;2023-07-29T01:47:22;30.98;;;15.93;;
67162;SDS011;54092;53.088;8.850;2023-07-29T01:49:48;30.45;;;14.65;;
67162;SDS011;54092;53.088;8.850;2023-07-29T01:52:14;32.65;;;15.20;;
67162;SDS011;54092;53.088;8.850;2023-07-29T01:54:39;31.98;;;15.48;;
67162;SDS011;54092;53.088;8.850;2023-07-29T01:57:05;33.33;;;15.77;;
67162;SDS011;54092;53.088;8.850;2023-07-29T01:59:30;36.67;;;16.42;;
67162;SDS011;54092;53.088;8.850;2023-07-29T02:01:56;36.53;;;17.45;;
67162;SDS011;54092;53.088;8.850;2023-07-29T02:04:21;40.47;;;17.30;;
67162;SDS011;54092;53.088;8.850;2023-07-29T02:06:47;36.25;;;17.10;;
67162;SDS011;54092;53.088;8.850;2023-07-29T02:09:12;39.83;;;18.25;;
67162;SDS011;54092;53.088;8.850;2023-07-29T02:11:38;45.78;;;17.60;;
67162;SDS011;54092;53.088;8.850;2023-07-29T02:14:03;47.92;;;17.40;;
67162;SDS011;54092;53.088;8.850;2023-07-29T02:16:29;42.30;;;18.38;;
67162;SDS011;54092;53.088;8.850;2023-07-29T02:18:54;43.72;;;17.90;;
67162;SDS011;54092;53.088;8.850;2023-07-29T02:21:20;42.53;;;17.73;;
67162;SDS011;54092;53.088;8.850;2023-07-29T02:23:45;43.70;;;19.13;;
67162;SDS011;54092;53.088;8.850;2023-07-29T02:26:11;49.40;;;20.08;;
67162;SDS011;54092;53.088;8.850;2023-07-29T02:28:37;43.40;;;17.67;;
67162;SDS011;54092;53.088;8.850;2023-07-29T02:31:20;43.65;;;19.02;;
67162;SDS011;54092;53.088;8.850;2023-07-29T02:33:47;42.72;;;18.70;;
67162;SDS011;54092;53.088;8.850;2023-07-29T02:36:13;46.10;;;18.63;;
67162;SDS011;54092;53.088;8.850;2023-07-29T02:38:39;41.40;;;18.30;;
67162;SDS011;54092;53.088;8.850;2023-07-29T02:41:05;47.15;;;19.08;;
67162;SDS011;54092;53.088;8.850;2023-07-29T02:43:31;47.50;;;19.10;;
67162;SDS011;54092;53.088;8.850;2023-07-29T02:45:56;39.58;;;17.90;;
67162;SDS011;54092;53.088;8.850;2023-07-29T02:48:22;42.45;;;17.92;;
67162;SDS011;54092;53.088;8.850;2023-07-29T02:50:47;44.08;;;18.63;;
67162;SDS011;54092;53.088;8.850;2023-07-29T02:53:13;41.45;;;17.63;;
67162;SDS011;54092;53.088;8.850;2023-07-29T02:55:41;41.13;;;18.30;;
67162;SDS011;54092;53.088;8.850;2023-07-29T02:58:07;37.33;;;17.55;;
67162;SDS011;54092;53.088;8.850;2023-07-29T03:00:32;36.97;;;17.38;;
67162;SDS011;54092;53.088;8.850;2023-07-29T03:02:58;41.25;;;18.20;;
67162;SDS011;54092;53.088;8.850;2023-07-29T03:05:24;37.10;;;16.20;;
67162;SDS011;54092;53.088;8.850;2023-07-29T03:07:52;39.15;;;16.75;;
67162;SDS011;54092;53.088;8.850;2023-07-29T03:10:17;36.40;;;17.02;;
67162;SDS011;54092;53.088;8.850;2023-07-29T03:12:43;37.25;;;16.98;;
67162;SDS011;54092;53.088;8.850;2023-07-29T03:15:09;35.42;;;16.27;;
67162;SDS011;54092;53.088;8.850;2023-07-29T03:17:34;40.10;;;19.45;;
67162;SDS011;54092;53.088;8.850;2023-07-29T03:20:00;42.38;;;18.77;;
67162;SDS011;54092;53.088;8.850;2023-07-29T03:22:25;40.72;;;17.80;;
67162;SDS011;54092;53.088;8.850;2023-07-29T03:24:51;41.92;;;18.33;;
67162;SDS011;54092;53.088;8.850;2023-07-29T03:27:16;44.60;;;19.02;;
67162;SDS011;54092;53.088;8.850;2023-07-29T03:29:42;41.97;;;18.65;;
67162;SDS011;54092;53.088;8.850;2023-07-29T03:32:08;44.88;;;19.55;;
67162;SDS011;54092;53.088;8.850;2023-07-29T03:34:33;44.85;;;19.08;;
67162;SDS011;54092;53.088;8.850;2023-07-29T03:37:00;44.38;;;18.50;;
67162;SDS011;54092;53.088;8.850;2023-07-29T03:39:26;43.05;;;18.52;;
67162;SDS011;54092;53.088;8.850;2023-07-29T03:41:52;43.30;;;19.90;;
67162;SDS011;54092;53.088;8.850;2023-07-29T03:44:17;45.63;;;19.42;;
67162;SDS011;54092;53.088;8.850;2023-07-29T03:46:43;46.38;;;18.92;;
67162;SDS011;54092;53.088;8.850;2023-07-29T03:49:09;46.97;;;18.65;;
67162;SDS011;54092;53.088;8.850;2023-07-29T03:51:35;45.50;;;17.75;;
67162;SDS011;54092;53.088;8.850;2023-07-29T03:54:01;43.80;;;17.75;;
67162;SDS011;54092;53.088;8.850;2023-07-29T03:56:26;44.97;;;19.23;;
67162;SDS011;54092;53.088;8.850;2023-07-29T03:58:52;40.03;;;17.23;;
67162;SDS011;54092;53.088;8.850;2023-07-29T04:01:18;40.08;;;18.35;;
67162;SDS011;54092;53.088;8.850;2023-07-29T04:03:44;38.35;;;17.85;;
67162;SDS011;54092;53.088;8.850;2023-07-29T04:06:11;44.88;;;18.60;;
67162;SDS011;54092;53.088;8.850;2023-07-29T04:08:37;36.92;;;16.98;;
67162;SDS011;54092;53.088;8.850;2023-07-29T04:11:02;39.78;;;17.60;;
67162;SDS011;54092;53.088;8.850;2023-07-29T04:13:28;41.53;;;18.58;;
67162;SDS011;54092;53.088;8.850;2023-07-29T04:15:54;43.10;;;18.05;;
67162;SDS011;54092;53.088;8.850;2023-07-29T04:18:19;38.67;;;17.75;;
67162;SDS011;54092;53.088;8.850;2023-07-29T04:20:45;40.00;;;18.17;;
67162;SDS011;54092;53.088;8.850;2023-07-29T04:23:10;41.25;;;18.35;;
67162;SDS011;54092;53.088;8.850;2023-07-29T04:25:36;46.67;;;19.02;;
67162;SDS011;54092;53.088;8.850;2023-07-29T04:28:02;38.97;;;18.17;;
67162;SDS011;54092;53.088;8.850;2023-07-29T04:30:29;45.42;;;20.00;;
67162;SDS011;54092;53.088;8.850;2023-07-29T04:32:55;42.58;;;19.10;;
67162;SDS011;54092;53.088;8.850;2023-07-29T04:35:20;41.33;;;18.98;;
67162;SDS011;54092;53.088;8.850;2023-07-29T04:37:46;40.88;;;19.20;;
67162;SDS011;54092;53.088;8.850;2023-07-29T04:40:13;38.28;;;17.73;;
67162;SDS011;54092;53.088;8.850;2023-07-29T04:42:39;37.95;;;18.88;;
67162;SDS011;54092;53.088;8.850;2023-07-29T04:45:04;37.40;;;19.45;;
67162;SDS011;54092;53.088;8.850;2023-07-29T04:47:30;43.08;;;19.10;;
67162;SDS011;54092;53.088;8.850;2023-07-29T04:49:56;40.03;;;17.95;;
67162;SDS011;54092;53.088;8.850;2023-07-29T04:52:21;35.05;;;18.65;;
67162;SDS011;54092;53.088;8.850;2023-07-29T04:54:47;37.97;;;18.05;;
67162;SDS011;54092;53.088;8.850;2023-07-29T04:57:12;45.30;;;18.95;;
67162;SDS011;54092;53.088;8.850;2023-07-29T04:59:38;37.67;;;18.38;;
67162;SDS011;54092;53.088;8.850;2023-07-29T05:02:03;38.08;;;17.70;;
67162;SDS011;54092;53.088;8.850;2023-07-29T05:04:29;37.15;;;18.05;;
67162;SDS011;54092;53.088;8.850;2023-07-29T05:06:55;42.08;;;17.85;;
67162;SDS011;54092;53.088;8.850;2023-07-29T05:09:20;36.10;;;17.65;;
67162;SDS011;54092;53.088;8.850;2023-07-29T05:11:46;32.75;;;16.63;;
67162;SDS011;54092;53.088;8.850;2023-07-29T05:14:15;36.88;;;17.05;;
67162;SDS011;54092;53.088;8.850;2023-07-29T05:16:42;32.58;;;15.98;;
67162;SDS011;54092;53.088;8.850;2023-07-29T05:19:08;34.38;;;17.88;;
67162;SDS011;54092;53.088;8.850;2023-07-29T05:21:33;33.25;;;15.90;;
67162;SDS011;54092;53.088;8.850;2023-07-29T05:23:59;34.83;;;17.73;;
67162;SDS011;54092;53.088;8.850;2023-07-29T05:26:25;33.42;;;16.58;;
67162;SDS011;54092;53.088;8.850;2023-07-29T05:28:50;31.23;;;16.25;;
67162;SDS011;54092;53.088;8.850;2023-07-29T05:31:16;37.03;;;16.00;;
67162;SDS011;54092;53.088;8.850;2023-07-29T05:33:42;34.35;;;16.27;;
67162;SDS011;54092;53.088;8.850;2023-07-29T05:36:08;31.48;;;15.65;;
67162;SDS011;54092;53.088;8.850;2023-07-29T05:38:34;31.83;;;15.18;;
67162;SDS011;54092;53.088;8.850;2023-07-29T05:40:59;28.38;;;14.50;;
67162;SDS011;54092;53.088;8.850;2023-07-29T05:43:25;31.33;;;14.68;;
67162;SDS011;54092;53.088;8.850;2023-07-29T05:45:51;28.48;;;14.27;;
67162;SDS011;54092;53.088;8.850;2023-07-29T05:48:17;28.88;;;14.95;;
67162;SDS011;54092;53.088;8.850;2023-07-29T05:50:43;26.20;;;14.13;;
67162;SDS011;54092;53.088;8.850;2023-07-29T05:53:08;30.15;;;14.85;;
67162;SDS011;54092;53.088;8.850;2023-07-29T05:55:34;27.92;;;14.40;;
67162;SDS011;54092;53.088;8.850;2023-07-29T05:57:59;29.48;;;14.00;;
67162;SDS011;54092;53.088;8.850;2023-07-29T06:00:25;29.77;;;14.38;;
67162;SDS011;54092;53.088;8.850;2023-07-29T06:02:50;27.70;;;14.38;;
67162;SDS011;54092;53.088;8.850;2023-07-29T06:05:16;29.80;;;14.15;;
67162;SDS011;54092;53.088;8.850;2023-07-29T06:07:42;27.58;;;14.20;;
67162;SDS011;54092;53.088;8.850;2023-07-29T06:10:12;28.55;;;14.48;;
67162;SDS011;54092;53.088;8.850;2023-07-29T06:12:38;26.95;;;14.38;;
67162;SDS011;54092;53.088;8.850;2023-07-29T06:15:04;27.02;;;14.05;;
67162;SDS011;54092;53.088;8.850;2023-07-29T06:17:30;29.25;;;14.68;;
67162;SDS011;54092;53.088;8.850;2023-07-29T06:19:56;26.48;;;14.60;;
67162;SDS011;54092;53.088;8.850;2023-07-29T06:22:21;25.95;;;13.60;;
67162;SDS011;54092;53.088;8.850;2023-07-29T06:24:47;25.60;;;14.75;;
67162;SDS011;54092;53.088;8.850;2023-07-29T06:27:12;25.83;;;14.65;;
67162;SDS011;54092;53.088;8.850;2023-07-29T06:29:38;26.65;;;15.10;;
67162;SDS011;54092;53.088;8.850;2023-07-29T06:32:04;29.95;;;16.17;;
67162;SDS011;54092;53.088;8.850;2023-07-29T06:34:29;29.42;;;15.05;;
67162;SDS011;54092;53.088;8.850;2023-07-29T06:36:55;32.13;;;15.40;;
67162;SDS011;54092;53.088;8.850;2023-07-29T06:39:20;28.30;;;15.35;;
67162;SDS011;54092;53.088;8.850;2023-07-29T06:41:46;29.08;;;15.10;;
67162;SDS011;54092;53.088;8.850;2023-07-29T06:44:11;28.58;;;16.27;;
67162;SDS011;54092;53.088;8.850;2023-07-29T06:46:37;28.30;;;17.10;;
67162;SDS011;54092;53.088;8.850;2023-07-29T06:49:03;29.20;;;15.27;;
67162;SDS011;54092;53.088;8.850;2023-07-29T06:51:28;29.05;;;16.58;;
67162;SDS011;54092;53.088;8.850;2023-07-29T06:53:57;30.85;;;16.08;;
67162;SDS011;54092;53.088;8.850;2023-07-29T06:56:23;29.30;;;15.30;;
67162;SDS011;54092;53.088;8.850;2023-07-29T06:58:48;26.65;;;15.55;;
67162;SDS011;54092;53.088;8.850;2023-07-29T07:01:14;30.52;;;16.20;;
67162;SDS011;54092;53.088;8.850;2023-07-29T07:03:39;29.02;;;15.73;;
67162;SDS011;54092;53.088;8.850;2023-07-29T07:06:05;27.38;;;15.70;;
67162;SDS011;54092;53.088;8.850;2023-07-29T07:08:30;28.17;;;15.10;;
67162;SDS011;54092;53.088;8.850;2023-07-29T07:10:56;23.98;;;14.18;;
67162;SDS011;54092;53.088;8.850;2023-07-29T07:13:21;31.40;;;15.80;;
67162;SDS011;54092;53.088;8.850;2023-07-29T07:15:47;25.58;;;14.85;;
67162;SDS011;54092;53.088;8.850;2023-07-29T07:18:13;25.27;;;14.65;;
67162;SDS011;54092;53.088;8.850;2023-07-29T07:20:38;24.35;;;14.40;;
67162;SDS011;54092;53.088;8.850;2023-07-29T07:23:04;23.17;;;14.82;;
67162;SDS011;54092;53.088;8.850;2023-07-29T07:25:31;27.40;;;15.55;;
67162;SDS011;54092;53.088;8.850;2023-07-29T07:27:56;26.80;;;15.23;;
67162;SDS011;54092;53.088;8.850;2023-07-29T07:30:22;24.58;;;14.07;;
67162;SDS011;54092;53.088;8.850;2023-07-29T07:32:47;23.02;;;14.30;;
67162;SDS011;54092;53.088;8.850;2023-07-29T07:35:13;22.50;;;12.65;;
67162;SDS011;54092;53.088;8.850;2023-07-29T07:37:39;23.38;;;13.27;;
67162;SDS011;54092;53.088;8.850;2023-07-29T07:40:04;22.73;;;13.05;;
67162;SDS011;54092;53.088;8.850;2023-07-29T07:42:30;20.13;;;12.77;;
67162;SDS011;54092;53.088;8.850;2023-07-29T07:44:56;19.92;;;12.02;;
67162;SDS011;54092;53.088;8.850;2023-07-29T07:47:21;19.27;;;10.95;;
67162;SDS011;54092;53.088;8.850;2023-07-29T07:49:47;19.08;;;12.20;;
67162;SDS011;54092;53.088;8.850;2023-07-29T07:52:14;20.27;;;11.40;;
67162;SDS011;54092;53.088;8.850;2023-07-29T07:54:39;17.73;;;10.55;;
67162;SDS011;54092;53.088;8.850;2023-07-29T07:57:05;18.45;;;10.20;;
67162;SDS011;54092;53.088;8.850;2023-07-29T07:59:31;17.80;;;11.38;;
67162;SDS011;54092;53.088;8.850;2023-07-29T08:01:56;17.20;;;10.68;;
67162;SDS011;54092;53.088;8.850;2023-07-29T08:04:22;16.70;;;9.73;;
67162;SDS011;54092;53.088;8.850;2023-07-29T08:06:47;17.30;;;10.82;;
67162;SDS011;54092;53.088;8.850;2023-07-29T08:09:13;15.25;;;10.07;;
67162;SDS011;54092;53.088;8.850;2023-07-29T08:11:38;17.58;;;9.00;;
67162;SDS011;54092;53.088;8.850;2023-07-29T08:14:04;13.70;;;8.20;;
67162;SDS011;54092;53.088;8.850;2023-07-29T08:16:29;14.05;;;7.80;;
67162;SDS011;54092;53.088;8.850;2023-07-29T08:18:55;14.63;;;8.43;;
67162;SDS011;54092;53.088;8.850;2023-07-29T08:21:20;14.70;;;7.40;;
67162;SDS011;54092;53.088;8.850;2023-07-29T08:23:46;12.13;;;7.47;;
67162;SDS011;54092;53.088;8.850;2023-07-29T08:26:12;12.43;;;7.22;;
67162;SDS011;54092;53.088;8.850;2023-07-29T08:28:38;12.07;;;6.00;;
67162;SDS011;54092;53.088;8.850;2023-07-29T08:31:04;11.75;;;6.03;;
67162;SDS011;54092;53.088;8.850;2023-07-29T08:33:30;9.35;;;5.82;;
67162;SDS011;54092;53.088;8.850;2023-07-29T08:35:57;10.55;;;5.05;;
67162;SDS011;54092;53.088;8.850;2023-07-29T08:38:24;6.60;;;4.05;;
67162;SDS011;54092;53.088;8.850;2023-07-29T08:40:54;8.02;;;4.60;;
67162;SDS011;54092;53.088;8.850;2023-07-29T08:43:37;7.88;;;3.85;;
67162;SDS011;54092;53.088;8.850;2023-07-29T08:46:04;7.78;;;4.60;;
67162;SDS011;54092;53.088;8.850;2023-07-29T08:48:32;10.13;;;4.47;;
67162;SDS011;54092;53.088;8.850;2023-07-29T08:51:07;6.95;;;3.90;;
67162;SDS011;54092;53.088;8.850;2023-07-29T08:53:34;7.88;;;3.45;;
67162;SDS011;54092;53.088;8.850;2023-07-29T08:56:01;6.75;;;3.80;;
67162;SDS011;54092;53.088;8.850;2023-07-29T08:58:27;5.68;;;3.53;;
67162;SDS011;54092;53.088;8.850;2023-07-29T09:00:53;8.70;;;3.90;;
67162;SDS011;54092;53.088;8.850;2023-07-29T09:03:19;8.02;;;3.90;;
67162;SDS011;54092;53.088;8.850;2023-07-29T09:05:45;8.10;;;3.92;;
67162;SDS011;54092;53.088;8.850;2023-07-29T09:08:11;7.18;;;3.88;;
67162;SDS011;54092;53.088;8.850;2023-07-29T09:10:37;8.43;;;5.18;;
67162;SDS011;54092;53.088;8.850;2023-07-29T09:13:03;5.72;;;3.25;;
67162;SDS011;54092;53.088;8.850;2023-07-29T09:15:30;8.95;;;3.30;;
67162;SDS011;54092;53.088;8.850;2023-07-29T09:17:58;6.73;;;2.97;;
67162;SDS011;54092;53.088;8.850;2023-07-29T09:20:25;6.55;;;3.38;;
67162;SDS011;54092;53.088;8.850;2023-07-29T09:22:51;8.90;;;4.22;;
67162;SDS011;54092;53.088;8.850;2023-07-29T09:25:22;8.45;;;4.40;;
67162;SDS011;54092;53.088;8.850;2023-07-29T09:27:52;9.73;;;5.10;;
67162;SDS011;54092;53.088;8.850;2023-07-29T09:30:18;9.40;;;4.72;;
67162;SDS011;54092;53.088;8.850;2023-07-29T09:32:43;7.57;;;4.53;;
67162;SDS011;54092;53.088;8.850;2023-07-29T09:35:10;7.72;;;4.97;;
67162;SDS011;54092;53.088;8.850;2023-07-29T09:37:38;8.63;;;4.78;;
67162;SDS011;54092;53.088;8.850;2023-07-29T09:40:05;8.63;;;4.28;;
67162;SDS011;54092;53.088;8.850;2023-07-29T09:42:31;7.35;;;4.60;;
67162;SDS011;54092;53.088;8.850;2023-07-29T09:44:57;6.18;;;3.90;;
67162;SDS011;54092;53.088;8.850;2023-07-29T09:47:23;7.88;;;4.20;;
67162;SDS011;54092;53.088;8.850;2023-07-29T09:49:50;8.48;;;4.45;;
67162;SDS011;54092;53.088;8.850;2023-07-29T09:52:17;5.82;;;3.22;;
67162;SDS011;54092;53.088;8.850;2023-07-29T09:54:44;5.70;;;3.40;;
67162;SDS011;54092;53.088;8.850;2023-07-29T09:57:10;6.68;;;3.47;;
67162;SDS011;54092;53.088;8.850;2023-07-29T09:59:38;7.00;;;3.80;;
67162;SDS011;54092;53.088;8.850;2023-07-29T10:02:04;6.70;;;4.07;;
67162;SDS011;54092;53.088;8.850;2023-07-29T10:04:29;5.32;;;3.65;;
67162;SDS011;54092;53.088;8.850;2023-07-29T10:06:57;7.00;;;3.97;;
67162;SDS011;54092;53.088;8.850;2023-07-29T10:09:24;7.45;;;4.45;;
67162;SDS011;54092;53.088;8.850;2023-07-29T10:11:50;6.85;;;4.22;;
67162;SDS011;54092;53.088;8.850;2023-07-29T10:14:18;6.47;;;4.43;;
67162;SDS011;54092;53.088;8.850;2023-07-29T10:16:44;7.07;;;4.13;;
67162;SDS011;54092;53.088;8.850;2023-07-29T10:19:11;6.32;;;4.22;;
67162;SDS011;54092;53.088;8.850;2023-07-29T10:21:39;6.80;;;4.60;;
67162;SDS011;54092;53.088;8.850;2023-07-29T10:24:11;6.78;;;3.97;;
67162;SDS011;54092;53.088;8.850;2023-07-29T10:26:42;5.93;;;4.20;;
67162;SDS011;54092;53.088;8.850;2023-07-29T10:29:12;6.30;;;4.53;;
67162;SDS011;54092;53.088;8.850;2023-07-29T10:31:40;9.32;;;4.10;;
67162;SDS011;54092;53.088;8.850;2023-07-29T10:34:07;4.93;;;3.45;;
67162;SDS011;54092;53.088;8.850;2023-07-29T10:36:34;6.25;;;3.92;;
67162;SDS011;54092;53.088;8.850;2023-07-29T10:39:01;7.07;;;3.80;;
67162;SDS011;54092;53.088;8.850;2023-07-29T10:47:13;5.45;;;3.90;;
67162;SDS011;54092;53.088;8.850;2023-07-29T10:49:56;7.28;;;3.58;;
67162;SDS011;54092;53.088;8.850;2023-07-29T10:55:01;7.15;;;4.22;;
67162;SDS011;54092;53.088;8.850;2023-07-29T10:57:38;5.43;;;3.90;;
67162;SDS011;54092;53.088;8.850;2023-07-29T11:00:05;5.85;;;4.28;;
67162;SDS011;54092;53.088;8.850;2023-07-29T11:02:32;6.28;;;4.07;;
67162;SDS011;54092;53.088;8.850;2023-07-29T11:05:05;7.57;;;3.80;;
67162;SDS011;54092;53.088;8.850;2023-07-29T11:07:31;6.38;;;3.60;;
67162;SDS011;54092;53.088;8.850;2023-07-29T11:10:12;6.35;;;3.65;;
67162;SDS011;54092;53.088;8.850;2023-07-29T11:12:39;5.45;;;3.45;;
67162;SDS011;54092;53.088;8.850;2023-07-29T11:20:12;6.63;;;3.10;;
67162;SDS011;54092;53.088;8.850;2023-07-29T11:22:39;5.40;;;3.20;;
67162;SDS011;54092;53.088;8.850;2023-07-29T11:25:05;5.50;;;3.30;;
67162;SDS011;54092;53.088;8.850;2023-07-29T11:27:32;5.13;;;3.28;;
67162;SDS011;54092;53.088;8.850;2023-07-29T11:29:58;6.47;;;3.60;;
67162;SDS011;54092;53.088;8.850;2023-07-29T11:32:25;8.00;;;3.50;;
67162;SDS011;54092;53.088;8.850;2023-07-29T11:34:51;5.18;;;3.58;;
67162;SDS011;54092;53.088;8.850;2023-07-29T11:37:17;5.93;;;3.30;;
67162;SDS011;54092;53.088;8.850;2023-07-29T11:39:43;5.60;;;3.13;;
67162;SDS011;54092;53.088;8.850;2023-07-29T11:42:10;4.90;;;3.03;;
67162;SDS011;54092;53.088;8.850;2023-07-29T11:44:36;5.90;;;2.97;;
67162;SDS011;54092;53.088;8.850;2023-07-29T11:47:05;5.82;;;3.35;;
67162;SDS011;54092;53.088;8.850;2023-07-29T11:49:33;4.93;;;2.97;;
67162;SDS011;54092;53.088;8.850;2023-07-29T11:51:58;4.88;;;2.88;;
67162;SDS011;54092;53.088;8.850;2023-07-29T11:54:24;6.47;;;3.25;;
67162;SDS011;54092;53.088;8.850;2023-07-29T11:56:50;4.85;;;3.15;;
67162;SDS011;54092;53.088;8.850;2023-07-29T11:59:16;5.10;;;3.15;;
67162;SDS011;54092;53.088;8.850;2023-07-29T12:01:41;6.25;;;3.00;;
67162;SDS011;54092;53.088;8.850;2023-07-29T12:04:07;4.65;;;2.95;;
67162;SDS011;54092;53.088;8.850;2023-07-29T12:06:33;5.50;;;3.10;;
67162;SDS011;54092;53.088;8.850;2023-07-29T12:08:59;6.15;;;2.88;;
67162;SDS011;54092;53.088;8.850;2023-07-29T12:11:25;7.22;;;3.05;;
67162;SDS011;54092;53.088;8.850;2023-07-29T12:13:52;6.10;;;2.85;;
67162;SDS011;54092;53.088;8.850;2023-07-29T12:16:18;7.65;;;2.78;;
67162;SDS011;54092;53.088;8.850;2023-07-29T12:18:44;7.22;;;3.17;;
67162;SDS011;54092;53.088;8.850;2023-07-29T12:21:10;5.05;;;3.00;;
67162;SDS011;54092;53.088;8.850;2023-07-29T12:23:35;5.85;;;3.05;;
67162;SDS011;54092;53.088;8.850;2023-07-29T12:26:01;5.68;;;2.80;;
67162;SDS011;54092;53.088;8.850;2023-07-29T12:28:28;3.67;;;2.55;;
67162;SDS011;54092;53.088;8.850;2023-07-29T12:30:55;4.03;;;2.60;;
67162;SDS011;54092;53.088;8.850;2023-07-29T12:33:31;5.10;;;2.63;;
67162;SDS011;54092;53.088;8.850;2023-07-29T12:35:58;6.15;;;3.15;;
67162;SDS011;54092;53.088;8.850;2023-07-29T12:38:25;4.55;;;2.60;;
67162;SDS011;54092;53.088;8.850;2023-07-29T12:40:52;4.95;;;2.90;;
67162;SDS011;54092;53.088;8.850;2023-07-29T12:43:18;4.75;;;2.70;;
67162;SDS011;54092;53.088;8.850;2023-07-29T12:45:43;6.00;;;3.25;;
67162;SDS011;54092;53.088;8.850;2023-07-29T12:48:09;4.75;;;2.65;;
67162;SDS011;54092;53.088;8.850;2023-07-29T12:50:35;4.78;;;2.70;;
67162;SDS011;54092;53.088;8.850;2023-07-29T12:53:01;6.25;;;2.90;;
67162;SDS011;54092;53.088;8.850;2023-07-29T12:55:27;4.50;;;2.60;;
67162;SDS011;54092;53.088;8.850;2023-07-29T12:57:53;5.45;;;2.78;;
67162;SDS011;54092;53.088;8.850;2023-07-29T13:00:18;5.03;;;2.90;;
67162;SDS011;54092;53.088;8.850;2023-07-29T13:02:44;5.95;;;2.80;;
67162;SDS011;54092;53.088;8.850;2023-07-29T13:05:09;4.93;;;2.90;;
67162;SDS011;54092;53.088;8.850;2023-07-29T13:07:36;4.45;;;2.70;;
67162;SDS011;54092;53.088;8.850;2023-07-29T13:10:03;5.50;;;2.60;;
67162;SDS011;54092;53.088;8.850;2023-07-29T13:12:29;5.93;;;2.92;;
67162;SDS011;54092;53.088;8.850;2023-07-29T13:14:54;4.35;;;2.65;;
67162;SDS011;54092;53.088;8.850;2023-07-29T13:17:21;5.75;;;2.80;;
67162;SDS011;54092;53.088;8.850;2023-07-29T13:19:47;5.25;;;2.78;;
67162;SDS011;54092;53.088;8.850;2023-07-29T13:22:13;5.78;;;2.80;;
67162;SDS011;54092;53.088;8.850;2023-07-29T13:24:38;5.00;;;3.08;;
67162;SDS011;54092;53.088;8.850;2023-07-29T13:27:04;4.85;;;2.78;;
67162;SDS011;54092;53.088;8.850;2023-07-29T13:29:30;7.45;;;3.15;;
67162;SDS011;54092;53.088;8.850;2023-07-29T13:31:55;6.28;;;2.75;;
67162;SDS011;54092;53.088;8.850;2023-07-29T13:34:21;5.43;;;2.65;;
67162;SDS011;54092;53.088;8.850;2023-07-29T13:36:46;6.07;;;2.75;;
67162;SDS011;54092;53.088;8.850;2023-07-29T13:39:12;4.90;;;2.70;;
67162;SDS011;54092;53.088;8.850;2023-07-29T13:41:37;6.38;;;2.75;;
67162;SDS011;54092;53.088;8.850;2023-07-29T13:44:03;5.22;;;2.80;;
67162;SDS011;54092;53.088;8.850;2023-07-29T13:46:29;4.72;;;2.50;;
67162;SDS011;54092;53.088;8.850;2023-07-29T13:48:54;4.10;;;2.33;;
67162;SDS011;54092;53.088;8.850;2023-07-29T13:51:20;4.72;;;2.60;;
67162;SDS011;54092;53.088;8.850;2023-07-29T13:53:45;5.20;;;2.60;;
67162;SDS011;54092;53.088;8.850;2023-07-29T13:56:11;7.78;;;2.65;;
67162;SDS011;54092;53.088;8.850;2023-07-29T13:58:36;6.50;;;2.80;;
67162;SDS011;54092;53.088;8.850;2023-07-29T14:01:02;5.82;;;2.90;;
67162;SDS011;54092;53.088;8.850;2023-07-29T14:03:27;4.80;;;2.60;;
67162;SDS011;54092;53.088;8.850;2023-07-29T14:05:53;5.10;;;2.60;;
67162;SDS011;54092;53.088;8.850;2023-07-29T14:08:18;5.55;;;2.45;;
67162;SDS011;54092;53.088;8.850;2023-07-29T14:10:44;4.72;;;2.67;;
67162;SDS011;54092;53.088;8.850;2023-07-29T14:13:10;6.80;;;2.67;;
67162;SDS011;54092;53.088;8.850;2023-07-29T14:15:36;6.10;;;3.08;;
67162;SDS011;54092;53.088;8.850;2023-07-29T14:18:01;4.75;;;2.78;;
67162;SDS011;54092;53.088;8.850;2023-07-29T14:20:27;6.85;;;2.75;;
67162;SDS011;54092;53.088;8.850;2023-07-29T14:22:53;4.25;;;2.63;;
67162;SDS011;54092;53.088;8.850;2023-07-29T14:25:18;4.55;;;2.78;;
67162;SDS011;54092;53.088;8.850;2023-07-29T14:27:44;6.07;;;2.92;;
67162;SDS011;54092;53.088;8.850;2023-07-29T14:30:10;5.07;;;2.70;;
67162;SDS011;54092;53.088;8.850;2023-07-29T14:32:36;4.32;;;2.60;;
67162;SDS011;54092;53.088;8.850;2023-07-29T14:35:02;6.85;;;2.75;;
67162;SDS011;54092;53.088;8.850;2023-07-29T14:37:29;5.22;;;2.45;;
67162;SDS011;54092;53.088;8.850;2023-07-29T14:39:57;4.65;;;2.65;;
67162;SDS011;54092;53.088;8.850;2023-07-29T14:42:23;4.50;;;2.60;;
67162;SDS011;54092;53.088;8.850;2023-07-29T14:44:49;4.95;;;2.90;;